Time;durP1;ratioP1;P1;durP2;ratioP2;P2;SDS_P1;SDS_P2;PMS_P1;PMS_P2;Temp;Humidity;BMP_temperature;BMP_pressure;BME280_temperature;BME280_humidity;BME280_pressure;Samples;Min_cycle;Max_cycle;Signal;HPM_P1;HPM_P2
2024/03/12 12:22:37;;;;;;;100.40;50.40;;;;;;;3.78;100.00;99724.05;102598;1289;613940;-70
2024/03/12 12:25:05;;;;;;;60.30;28.40;;;;;;;6.06;100.00;99723.44;105226;1263;59279;-71
2024/03/12 12:27:32;;;;;;;87.80;47.00;;;;;;;6.24;99.12;99727.65;104959;1263;59251;-67
2024/03/12 12:29:59;;;;;;;67.70;34.80;;;;;;;5.88;99.19;99728.23;104950;1263;71048;-66
2024/03/12 12:32:29;;;;;;;47.00;27.10;;;;;;;5.72;99.50;99726.69;105301;1263;67934;-65
2024/03/12 12:34:57;;;;;;;45.50;27.40;;;;;;;6.38;95.56;99726.15;104774;1269;173619;-64
2024/03/12 12:37:24;;;;;;;49.10;26.80;;;;;;;6.26;93.67;99723.90;104741;1266;61139;-68
2024/03/12 12:39:51;;;;;;;66.80;29.70;;;;;;;6.17;94.73;99718.66;104832;1266;60840;-66
2024/03/12 12:42:24;;;;;;;58.10;29.60;;;;;;;5.85;96.29;99720.14;104674;1264;72991;-66
2024/03/12 12:44:53;;;;;;;64.20;32.80;;;;;;;5.49;98.13;99724.55;105174;1266;69423;-69
2024/03/12 12:47:23;;;;;;;57.00;30.60;;;;;;;5.73;96.85;99717.45;104912;1270;72684;-69
2024/03/12 12:49:52;;;;;;;49.90;26.80;;;;;;;6.08;93.72;99724.85;105158;1269;61690;-67
2024/03/12 12:52:19;;;;;;;59.20;32.10;;;;;;;6.13;93.09;99722.45;105054;1264;59883;-67
2024/03/12 12:54:48;;;;;;;53.10;30.20;;;;;;;6.34;91.60;99726.98;105100;1268;72084;-65
2024/03/12 12:57:15;;;;;;;71.60;38.40;;;;;;;5.70;94.94;99719.73;104065;1266;1003055;-65
2024/03/12 12:59:42;;;;;;;60.80;32.60;;;;;;;6.10;93.26;99722.30;104977;1269;60130;-68
2024/03/12 13:02:18;;;;;;;77.90;40.30;;;;;;;5.26;98.44;99721.88;105170;1269;59746;-68
2024/03/12 13:04:45;;;;;;;60.70;30.00;;;;;;;5.59;96.67;99722.18;105285;1265;60141;-69
2024/03/12 13:07:17;;;;;;;63.40;34.40;;;;;;;5.66;95.71;99720.94;105267;1266;72019;-68
2024/03/12 13:09:44;;;;;;;52.80;29.40;;;;;;;5.92;93.86;99723.93;105376;1261;67976;-66
2024/03/12 13:12:13;;;;;;;43.10;25.90;;;;;;;5.38;95.73;99720.66;105302;1263;72832;-69
2024/03/12 13:14:43;;;;;;;58.60;30.80;;;;;;;5.55;96.38;99722.66;105232;1263;61242;-66
2024/03/12 13:17:10;;;;;;;61.70;30.10;;;;;;;5.76;94.08;99714.10;104960;1263;60650;-70
2024/03/12 13:19:38;;;;;;;59.00;31.50;;;;;;;5.87;93.54;99716.77;105368;1266;73087;-68
2024/03/12 13:22:05;;;;;;;57.60;29.80;;;;;;;6.04;92.29;99715.66;105259;1263;69197;-67
2024/03/12 13:24:43;;;;;;;45.30;24.50;;;;;;;5.66;93.27;99702.09;105332;1265;72481;-68
2024/03/12 13:27:10;;;;;;;52.20;23.80;;;;;;;4.78;97.79;99698.43;105272;1261;61879;-67
2024/03/12 13:29:37;;;;;;;33.70;19.40;;;;;;;4.13;100.00;99700.04;105777;1255;60303;-67
2024/03/12 13:32:05;;;;;;;49.10;26.60;;;;;;;4.51;100.00;99700.02;105589;1260;72997;-73
2024/03/12 13:34:32;;;;;;;47.80;26.40;;;;;;;5.21;98.96;99690.52;105768;1256;68926;-64
2024/03/12 13:36:59;;;;;;;49.60;26.00;;;;;;;4.86;99.79;99684.40;105721;1258;72811;-68
2024/03/12 13:39:26;;;;;;;38.30;23.40;;;;;;;5.34;97.55;99688.70;105378;1256;61147;-65
2024/03/12 13:41:54;;;;;;;41.00;22.50;;;;;;;5.37;95.34;99677.33;105602;1256;60333;-65
2024/03/12 13:44:21;;;;;;;45.90;25.70;;;;;;;5.37;95.15;99676.55;105878;1258;72830;-70
2024/03/12 13:46:48;;;;;;;51.60;29.60;;;;;;;5.35;94.86;99678.75;105780;1259;68896;-63
2024/03/12 13:49:19;;;;;;;44.00;21.90;;;;;;;5.37;94.19;99677.84;105824;1255;72907;-66
2024/03/12 13:51:47;;;;;;;47.50;26.40;;;;;;;5.09;95.25;99678.27;105569;1256;61184;-65
2024/03/12 13:54:14;;;;;;;50.10;25.40;;;;;;;5.25;94.70;99681.48;105868;1255;60553;-66
2024/03/12 13:56:41;;;;;;;60.50;34.10;;;;;;;5.34;94.06;99677.16;105529;1259;73013;-68
2024/03/12 13:59:08;;;;;;;58.30;30.80;;;;;;;5.06;94.81;99678.15;105467;1260;67723;-63
2024/03/12 14:01:36;;;;;;;58.80;32.70;;;;;;;4.20;100.00;99672.89;105592;1260;72378;-65
2024/03/12 14:04:04;;;;;;;;;;;;;;;4.29;100.00;99679.77;105803;1254;60144;-64
2024/03/12 14:06:33;;;;;;;52.00;29.20;;;;;;;4.46;100.00;99667.72;105502;1256;60098;-64
2024/03/12 14:09:01;;;;;;;46.70;23.80;;;;;;;4.44;100.00;99672.84;105693;1260;73740;-63
2024/03/12 14:11:28;;;;;;;45.40;28.80;;;;;;;4.22;100.00;99666.57;105809;1259;68764;-64
2024/03/12 14:13:55;;;;;;;63.10;29.80;;;;;;;4.43;100.00;99660.35;105656;1260;73468;-64
2024/03/12 14:16:22;;;;;;;46.40;30.10;;;;;;;4.53;100.00;99664.51;105342;1257;61092;-62
2024/03/12 14:18:52;;;;;;;49.20;26.10;;;;;;;4.55;99.83;99661.87;105638;1254;60459;-66
2024/03/12 14:21:18;;;;;;;53.30;31.60;;;;;;;5.00;98.06;99662.58;105843;1259;73554;-64
2024/03/12 14:23:47;;;;;;;54.50;30.50;;;;;;;4.60;99.16;99660.22;105659;1259;68956;-63
2024/03/12 14:26:16;;;;;;;48.90;27.20;;;;;;;4.17;100.00;99653.67;105778;1259;72902;-65
2024/03/12 14:28:44;;;;;;;49.00;26.40;;;;;;;4.26;100.00;99652.76;105636;1260;60874;-66
2024/03/12 14:31:14;;;;;;;60.40;31.50;;;;;;;4.39;99.81;99653.06;105790;1259;60504;-64
2024/03/12 14:33:41;;;;;;;60.00;30.20;;;;;;;4.66;99.05;99652.36;105412;1264;73784;-65
2024/03/12 14:36:08;;;;;;;57.60;31.80;;;;;;;4.43;99.92;99648.71;105481;1260;68585;-66
2024/03/12 14:38:35;;;;;;;61.20;32.40;;;;;;;4.90;97.36;99643.80;105629;1260;72784;-66
2024/03/12 14:41:04;;;;;;;41.30;25.20;;;;;;;4.65;97.89;99638.30;105811;1254;61347;-65
2024/03/12 14:43:31;;;;;;;40.50;24.20;;;;;;;4.30;99.78;99639.61;105748;1254;60462;-65
2024/03/12 14:45:59;;;;;;;41.20;23.60;;;;;;;4.49;99.65;99641.21;105687;1259;73184;-62
2024/03/12 14:48:28;;;;;;;41.30;24.10;;;;;;;4.59;99.18;99638.52;105808;1259;68868;-63
2024/03/12 14:50:55;;;;;;;61.30;33.70;;;;;;;4.96;96.97;99639.10;105746;1260;72836;-62
2024/03/12 14:53:22;;;;;;;50.50;28.30;;;;;;;4.95;96.93;99639.58;105700;1254;61118;-63
2024/03/12 14:55:49;;;;;;;57.90;31.90;;;;;;;4.96;97.22;99639.84;105674;1258;60571;-62
2024/03/12 14:58:17;;;;;;;57.60;33.00;;;;;;;5.07;96.36;99641.41;105711;1259;73736;-67
2024/03/12 15:00:44;;;;;;;58.90;33.00;;;;;;;4.86;96.96;99641.62;105623;1255;68777;-64
2024/03/12 15:03:12;;;;;;;70.50;40.10;;;;;;;4.84;97.28;99638.39;105641;1266;71821;-63
2024/03/12 15:05:39;;;;;;;59.20;34.40;;;;;;;5.01;96.67;99644.31;105551;1260;61191;-63
2024/03/12 15:08:10;;;;;;;58.00;33.80;;;;;;;4.83;97.54;99636.81;105564;1260;59648;-66
2024/03/12 15:10:37;;;;;;;61.50;33.30;;;;;;;5.04;96.30;99638.02;105637;1259;73245;-63
2024/03/12 15:13:04;;;;;;;67.40;37.40;;;;;;;4.72;98.06;99639.13;105592;1254;68806;-68
2024/03/12 15:15:32;;;;;;;58.50;27.80;;;;;;;4.95;97.19;99640.99;105631;1260;71800;-64
2024/03/12 15:18:00;;;;;;;65.50;36.30;;;;;;;4.83;96.55;99636.25;105593;1257;61967;-63
2024/03/12 15:20:27;;;;;;;60.60;37.00;;;;;;;4.90;95.95;99639.67;105723;1258;60941;-64
2024/03/12 15:22:56;;;;;;;59.40;33.60;;;;;;;4.81;96.26;99638.91;105594;1254;72301;-63
2024/03/12 15:25:23;;;;;;;60.00;35.70;;;;;;;5.16;94.99;99637.95;105509;1261;68826;-63
2024/03/12 15:27:50;;;;;;;59.10;33.80;;;;;;;5.02;94.85;99640.49;105938;1251;72799;-63
2024/03/12 15:30:17;;;;;;;49.60;29.90;;;;;;;5.10;94.25;99637.09;105791;1255;61111;-64
2024/03/12 15:32:45;;;;;;;54.80;25.10;;;;;;;4.48;97.68;99634.63;105959;1251;61113;-63
2024/03/12 15:35:13;;;;;;;48.10;26.50;;;;;;;4.27;99.47;99629.41;106013;1255;73038;-63
2024/03/12 15:37:42;;;;;;;64.30;30.90;;;;;;;4.42;99.29;99638.26;105782;1257;68617;-64
2024/03/12 15:40:11;;;;;;;48.70;26.60;;;;;;;3.60;100.00;99633.74;105774;1257;72733;-64
2024/03/12 15:42:39;;;;;;;44.00;27.40;;;;;;;3.66;100.00;99632.56;105953;1257;61133;-63
2024/03/12 15:45:11;;;;;;;48.90;26.40;;;;;;;3.59;100.00;99630.64;105739;1251;60995;-63
2024/03/12 15:47:42;;;;;;;52.00;31.80;;;;;;;3.49;100.00;99627.96;105961;1255;72218;-62
2024/03/12 15:50:11;;;;;;;50.90;26.00;;;;;;;3.65;100.00;99626.02;105733;1258;68785;-66
2024/03/12 15:52:38;;;;;;;45.10;26.60;;;;;;;2.71;100.00;99613.55;105625;1258;72455;-62
2024/03/12 15:55:07;;;;;;;50.90;31.40;;;;;;;3.04;100.00;99621.00;105902;1251;61678;-62
2024/03/12 15:57:34;;;;;;;44.30;24.90;;;;;;;3.49;100.00;99624.61;105924;1251;60452;-66
2024/03/12 16:00:05;;;;;;;57.00;32.50;;;;;;;3.70;100.00;99616.59;105866;1254;72857;-64
2024/03/12 16:02:37;;;;;;;34.60;20.80;;;;;;;3.73;100.00;99621.84;105638;1253;67285;-65
2024/03/12 16:05:04;;;;;;;49.30;29.80;;;;;;;3.93;100.00;99623.92;106065;1254;72347;-62
2024/03/12 16:07:34;;;;;;;47.30;27.30;;;;;;;4.04;100.00;99622.10;105926;1257;61019;-62
2024/03/12 16:10:02;;;;;;;56.40;33.30;;;;;;;4.33;100.00;99617.98;105972;1252;60229;-64
2024/03/12 16:12:29;;;;;;;59.30;34.10;;;;;;;4.27;100.00;99623.72;105875;1261;73191;-64
2024/03/12 16:14:57;;;;;;;51.10;30.80;;;;;;;4.34;100.00;99625.02;105956;1254;68885;-62
2024/03/12 16:17:24;;;;;;;59.60;31.50;;;;;;;4.25;100.00;99619.77;105646;1261;73128;-66
2024/03/12 16:19:51;;;;;;;62.00;37.40;;;;;;;4.32;99.95;99613.56;105969;1251;61051;-63
2024/03/12 16:22:18;;;;;;;59.70;33.20;;;;;;;4.32;100.00;99615.66;105695;1256;60168;-63
2024/03/12 16:24:45;;;;;;;59.00;29.40;;;;;;;4.73;99.12;99611.06;105829;1251;73045;-65
2024/03/12 16:27:12;;;;;;;48.10;30.70;;;;;;;4.83;97.99;99613.98;105621;1258;69109;-64
2024/03/12 16:29:39;;;;;;;65.90;33.90;;;;;;;4.92;97.02;99613.85;105922;1251;71465;-63
2024/03/12 16:32:07;;;;;;;72.00;39.60;;;;;;;5.08;96.58;99614.14;105930;1255;61903;-64
2024/03/12 16:34:34;;;;;;;62.60;31.30;;;;;;;5.28;94.67;99612.52;105797;1255;60601;-64
2024/03/12 16:37:01;;;;;;;39.60;23.50;;;;;;;5.03;95.20;99607.86;105955;1254;72661;-62
2024/03/12 16:39:29;;;;;;;42.40;25.00;;;;;;;4.70;98.36;99605.03;105734;1251;68563;-63
2024/03/12 16:41:57;;;;;;;55.70;28.70;;;;;;;5.05;95.21;99604.38;105936;1255;72519;-63
2024/03/12 16:44:24;;;;;;;43.10;26.10;;;;;;;4.40;98.74;99604.74;105851;1254;60991;-65
2024/03/12 16:46:54;;;;;;;44.70;28.20;;;;;;;4.44;98.83;99604.47;105805;1251;60542;-63
2024/03/12 16:49:21;;;;;;;43.60;23.20;;;;;;;4.25;99.84;99605.06;105797;1254;73876;-68
2024/03/12 16:51:50;;;;;;;39.90;23.10;;;;;;;4.08;100.00;99603.27;105881;1251;68709;-65
2024/03/12 16:54:17;;;;;;;45.90;27.20;;;;;;;4.20;100.00;99600.98;105485;1257;73199;-65
2024/03/12 16:56:45;;;;;;;39.80;23.10;;;;;;;4.65;98.22;99605.55;106010;1255;60613;-66
2024/03/12 16:59:13;;;;;;;46.10;26.30;;;;;;;4.78;97.24;99606.24;105924;1251;60529;-65
2024/03/12 17:01:41;;;;;;;47.50;28.60;;;;;;;4.76;96.83;99607.56;105961;1253;72391;-63
2024/03/12 17:04:10;;;;;;;45.20;27.10;;;;;;;4.68;97.47;99603.24;105709;1258;67568;-64
2024/03/12 17:06:39;;;;;;;47.20;26.40;;;;;;;4.50;98.06;99604.85;105960;1254;73136;-68
2024/03/12 17:09:09;;;;;;;43.60;23.20;;;;;;;4.42;98.98;99601.34;106039;1255;61286;-65
2024/03/12 17:11:37;;;;;;;45.70;28.60;;;;;;;4.46;98.85;99600.05;106047;1251;60511;-73
2024/03/12 17:14:06;;;;;;;52.30;28.70;;;;;;;4.33;99.03;99586.67;106125;1251;73975;-66
2024/03/12 17:16:41;;;;;;;46.40;28.20;;;;;;;4.68;97.50;99599.27;105993;1251;69378;-66
2024/03/12 17:19:10;;;;;;;50.80;27.30;;;;;;;4.82;96.44;99594.89;106039;1251;72794;-67
2024/03/12 17:21:39;;;;;;;52.20;28.80;;;;;;;4.76;96.53;99596.08;106136;1251;60937;-67
2024/03/12 17:24:07;;;;;;;;;;;;;;;4.82;96.65;99591.70;106777;1251;59257;-68
2024/03/12 17:26:39;;;;;;;43.50;26.90;;;;;;;4.78;96.85;99593.27;106992;1250;72492;-67
2024/03/12 17:29:09;;;;;;;56.30;32.10;;;;;;;4.75;97.09;99589.01;107286;1251;68061;-68
2024/03/12 17:31:39;;;;;;;51.00;32.10;;;;;;;4.65;97.81;99589.10;107575;1251;72309;-67
2024/03/12 17:34:07;;;;;;;43.20;26.30;;;;;;;4.75;97.04;99582.16;107515;1257;60486;-68
2024/03/12 17:36:38;;;;;;;40.20;22.30;;;;;;;4.83;96.80;99580.35;107674;1251;60417;-68
2024/03/12 17:39:09;;;;;;;58.90;34.60;;;;;;;4.91;96.25;99579.23;107821;1254;72627;-69
2024/03/12 17:41:37;;;;;;;51.40;32.70;;;;;;;4.89;96.30;99574.74;106626;1252;67775;-69
2024/03/12 17:44:08;;;;;;;53.30;29.00;;;;;;;4.99;96.39;99584.30;106147;1254;72170;-67
2024/03/12 17:46:43;;;;;;;62.20;36.90;;;;;;;4.70;97.49;99573.11;106186;1254;60890;-66
2024/03/12 17:49:16;;;;;;;51.00;31.00;;;;;;;4.21;100.00;99574.09;105797;1251;60567;-69
2024/03/12 17:51:44;;;;;;;49.90;29.20;;;;;;;4.20;100.00;99572.87;105479;1264;74051;-63
2024/03/12 17:54:14;;;;;;;62.50;35.40;;;;;;;4.26;100.00;99575.79;106007;1254;68143;-71
2024/03/12 17:56:48;;;;;;;58.90;30.00;;;;;;;4.08;100.00;99571.71;106139;1254;73957;-72
2024/03/12 17:59:18;;;;;;;66.10;35.50;;;;;;;4.05;100.00;99571.46;105777;1256;60597;-70
2024/03/12 18:01:45;;;;;;;58.20;31.70;;;;;;;4.11;100.00;99571.35;105721;1258;61085;-71
2024/03/12 18:04:13;;;;;;;50.80;26.60;;;;;;;4.42;99.86;99572.14;105976;1255;73849;-72
2024/03/12 18:06:41;;;;;;;49.80;25.90;;;;;;;4.48;99.64;99570.36;105885;1251;68002;-66
2024/03/12 18:09:12;;;;;;;58.10;31.60;;;;;;;4.39;99.78;99569.51;105788;1257;72717;-63
2024/03/12 18:11:41;;;;;;;47.60;29.50;;;;;;;4.56;99.09;99570.52;106020;1251;60983;-66
2024/03/12 18:14:09;;;;;;;57.00;30.70;;;;;;;4.56;98.53;99569.77;105924;1251;60537;-66
2024/03/12 18:16:36;;;;;;;55.70;33.00;;;;;;;4.79;97.17;99557.75;105726;1254;74678;-66
2024/03/12 18:19:05;;;;;;;50.00;29.90;;;;;;;4.80;97.01;99567.23;105795;1256;68409;-68
2024/03/12 18:21:33;;;;;;;63.30;38.60;;;;;;;5.11;95.20;99569.75;105802;1257;72723;-67
2024/03/12 18:24:00;;;;;;;59.60;34.00;;;;;;;5.41;93.11;99573.27;105724;1257;61685;-66
2024/03/12 18:26:27;;;;;;;68.70;35.90;;;;;;;5.47;92.29;99567.09;105915;1257;60597;-65
2024/03/12 18:28:56;;;;;;;50.10;27.10;;;;;;;5.73;90.40;99572.15;105515;1260;74274;-65
2024/03/12 18:31:24;;;;;;;53.20;27.70;;;;;;;5.54;90.78;99570.30;105722;1254;69531;-65
2024/03/12 18:33:51;;;;;;;71.30;38.80;;;;;;;5.47;91.31;99574.83;105877;1256;72601;-71
2024/03/12 18:36:19;;;;;;;50.20;29.70;;;;;;;5.52;91.20;99569.00;105801;1253;62338;-70
2024/03/12 18:38:46;;;;;;;63.70;35.50;;;;;;;5.36;91.80;99574.30;105682;1257;61436;-64
2024/03/12 18:41:13;;;;;;;62.70;31.90;;;;;;;5.57;90.73;99567.40;105952;1251;74030;-68
2024/03/12 18:43:40;;;;;;;58.60;31.70;;;;;;;5.43;91.79;99574.25;105664;1257;68626;-65
2024/03/12 18:46:08;;;;;;;62.40;30.00;;;;;;;5.77;89.37;99572.64;105689;1257;71923;-67
2024/03/12 18:48:35;;;;;;;50.80;25.60;;;;;;;4.94;93.32;99565.13;105885;1256;60510;-67
2024/03/12 18:51:04;;;;;;;59.60;35.80;;;;;;;5.18;93.52;99569.27;105981;1251;60357;-70
2024/03/12 18:53:33;;;;;;;51.60;30.30;;;;;;;5.10;93.88;99573.92;105771;1251;72869;-69
2024/03/12 18:56:01;;;;;;;51.80;28.80;;;;;;;5.25;93.78;99571.11;105769;1252;68628;-67
2024/03/12 18:58:28;;;;;;;53.80;29.00;;;;;;;5.15;93.92;99577.23;106059;1255;71658;-66
2024/03/12 19:00:56;;;;;;;49.60;28.00;;;;;;;4.84;96.98;99574.98;105987;1254;61954;-66
2024/03/12 19:03:23;;;;;;;51.30;29.40;;;;;;;4.78;97.68;99570.77;106097;1251;60469;-67
2024/03/12 19:05:52;;;;;;;57.80;35.10;;;;;;;4.59;98.90;99568.70;106019;1253;73922;-65
2024/03/12 19:08:19;;;;;;;60.50;34.40;;;;;;;5.00;97.56;99571.67;105963;1251;68961;-64
2024/03/12 19:10:47;;;;;;;42.20;24.30;;;;;;;5.06;95.96;99572.86;106033;1253;72796;-68
2024/03/12 19:13:15;;;;;;;54.70;30.30;;;;;;;4.85;96.86;99565.52;105772;1254;61235;-68
2024/03/12 19:15:44;;;;;;;57.10;34.90;;;;;;;5.00;96.12;99563.80;106027;1254;60527;-66
2024/03/12 19:18:19;;;;;;;43.70;24.70;;;;;;;5.22;94.23;99561.38;106014;1253;73901;-68
2024/03/12 19:20:47;;;;;;;55.00;31.40;;;;;;;5.21;94.05;99560.86;106067;1257;68655;-68
2024/03/12 19:23:16;;;;;;;60.30;35.10;;;;;;;5.13;93.80;99559.52;106051;1251;72840;-67
2024/03/12 19:25:43;;;;;;;54.20;30.40;;;;;;;4.72;96.84;99554.57;106011;1252;61395;-65
2024/03/12 19:28:10;;;;;;;55.80;31.00;;;;;;;5.01;95.83;99558.42;106078;1251;60335;-65
2024/03/12 19:30:38;;;;;;;51.10;32.60;;;;;;;4.81;96.41;99553.54;106051;1253;73765;-71
2024/03/12 19:33:06;;;;;;;46.60;30.30;;;;;;;4.90;96.00;99553.91;105726;1252;68843;-67
2024/03/12 19:35:33;;;;;;;43.30;24.30;;;;;;;4.88;96.19;99551.80;105782;1251;73329;-67
2024/03/12 19:38:01;;;;;;;49.00;30.30;;;;;;;4.73;96.80;99550.77;105816;1251;61127;-67
2024/03/12 19:40:28;;;;;;;50.20;31.90;;;;;;;5.23;95.01;99552.67;106009;1251;60843;-64
2024/03/12 19:42:56;;;;;;;45.40;28.40;;;;;;;5.15;94.01;99548.05;106006;1250;73655;-67
2024/03/12 19:45:27;;;;;;;45.00;27.10;;;;;;;4.70;97.19;99553.46;105582;1251;68985;-67
2024/03/12 19:47:55;;;;;;;50.20;31.20;;;;;;;5.28;94.11;99551.67;105727;1258;72425;-65
2024/03/12 19:50:24;;;;;;;45.90;27.80;;;;;;;5.52;92.63;99549.84;106050;1250;61920;-66
2024/03/12 19:52:52;;;;;;;38.20;20.10;;;;;;;5.56;91.87;99549.41;105799;1257;60361;-64
2024/03/12 19:55:24;;;;;;;47.70;27.80;;;;;;;5.58;91.87;99548.91;105914;1253;73881;-66
2024/03/12 19:57:54;;;;;;;43.10;22.10;;;;;;;5.38;92.95;99541.54;106247;1250;68804;-67
2024/03/12 20:00:29;;;;;;;41.60;25.00;;;;;;;5.35;93.41;99541.86;105778;1257;71946;-64
2024/03/12 20:02:57;;;;;;;43.60;28.90;;;;;;;4.97;95.78;99538.15;104579;1250;1003750;-64
2024/03/12 20:05:27;;;;;;;46.30;27.10;;;;;;;4.29;99.84;99535.27;105930;1251;60531;-63
2024/03/12 20:07:57;;;;;;;46.00;29.00;;;;;;;4.42;99.60;99534.18;106063;1253;73646;-63
2024/03/12 20:10:25;;;;;;;42.40;24.90;;;;;;;4.76;98.55;99539.88;106020;1251;69020;-65
2024/03/12 20:12:53;;;;;;;45.30;28.00;;;;;;;4.75;98.27;99537.82;105842;1254;72689;-64
2024/03/12 20:15:23;;;;;;;39.10;22.70;;;;;;;5.17;96.08;99538.33;105908;1253;61023;-62
2024/03/12 20:17:53;;;;;;;38.90;24.80;;;;;;;5.77;91.87;99538.24;106034;1251;61336;-61
2024/03/12 20:20:22;;;;;;;32.50;19.90;;;;;;;4.72;96.71;99530.28;106040;1251;73674;-66
2024/03/12 20:22:52;;;;;;;;;;;;;;;5.28;94.87;99534.59;105750;1251;67526;-70
2024/03/12 20:25:24;;;;;;;26.50;17.00;;;;;;;5.28;94.20;99531.26;105940;1251;72786;-62
2024/03/12 20:27:54;;;;;;;38.50;23.20;;;;;;;5.06;95.06;99530.38;105954;1251;61821;-65
2024/03/12 20:30:26;;;;;;;41.30;22.20;;;;;;;5.14;95.54;99533.29;105865;1251;60800;-66
2024/03/12 20:32:57;;;;;;;42.70;24.70;;;;;;;5.19;94.77;99526.65;105894;1251;73907;-64
2024/03/12 20:35:24;;;;;;;37.80;22.40;;;;;;;5.31;93.70;99527.95;105648;1256;69174;-65
2024/03/12 20:37:51;;;;;;;42.90;28.20;;;;;;;5.40;93.43;99529.34;105865;1251;72574;-61
2024/03/12 20:40:20;;;;;;;27.90;17.30;;;;;;;5.35;93.08;99528.34;105947;1251;60507;-65
2024/03/12 20:42:48;;;;;;;40.10;25.30;;;;;;;5.43;93.17;99529.86;105634;1251;60405;-62
2024/03/12 20:45:20;;;;;;;46.10;27.20;;;;;;;5.26;93.51;99531.86;105694;1257;73635;-63
2024/03/12 20:47:50;;;;;;;38.90;23.30;;;;;;;5.28;94.57;99526.13;105967;1251;68809;-65
2024/03/12 20:50:20;;;;;;;36.10;21.00;;;;;;;5.45;93.36;99528.87;105712;1257;72879;-62
2024/03/12 20:52:47;;;;;;;48.60;28.00;;;;;;;5.62;92.17;99529.16;105967;1251;61768;-63
2024/03/12 20:55:15;;;;;;;45.80;29.00;;;;;;;5.50;92.25;99526.67;105984;1251;60466;-65
2024/03/12 20:57:46;;;;;;;37.00;21.20;;;;;;;5.70;91.18;99531.83;105762;1251;74637;-66
2024/03/12 21:00:17;;;;;;;42.20;23.90;;;;;;;5.52;92.47;99525.55;105658;1257;68426;-64
2024/03/12 21:02:48;;;;;;;52.30;30.40;;;;;;;4.55;96.56;99523.28;105983;1251;72694;-63
2024/03/12 21:05:17;;;;;;;43.10;26.70;;;;;;;3.57;100.00;99517.62;105946;1251;61167;-67
2024/03/12 21:07:45;;;;;;;39.70;23.20;;;;;;;3.85;100.00;99519.30;105962;1251;60470;-65
2024/03/12 21:10:12;;;;;;;34.70;17.80;;;;;;;4.68;99.50;99522.48;106017;1251;73734;-65
2024/03/12 21:12:41;;;;;;;48.90;26.90;;;;;;;5.03;97.74;99525.03;105558;1261;68592;-64
2024/03/12 21:15:09;;;;;;;51.40;24.10;;;;;;;5.21;96.02;99520.79;105929;1251;71885;-67
2024/03/12 21:17:36;;;;;;;49.60;29.70;;;;;;;5.12;95.84;99520.08;105929;1251;61232;-65
2024/03/12 21:20:12;;;;;;;35.20;20.30;;;;;;;4.99;96.69;99521.59;105782;1251;60533;-68
2024/03/12 21:22:39;;;;;;;54.20;30.00;;;;;;;4.88;97.39;99518.98;105972;1254;73669;-66
2024/03/12 21:25:08;;;;;;;41.30;25.10;;;;;;;5.11;95.99;99515.15;105923;1251;67667;-69
2024/03/12 21:27:35;;;;;;;46.20;28.80;;;;;;;5.13;95.57;99515.14;105915;1251;71545;-65
2024/03/12 21:30:08;;;;;;;56.40;28.90;;;;;;;5.16;95.38;99515.21;105858;1251;61099;-64
2024/03/12 21:32:36;;;;;;;43.70;28.40;;;;;;;5.13;95.52;99514.55;105681;1256;61556;-67
2024/03/12 21:35:07;;;;;;;48.50;28.50;;;;;;;5.01;96.02;99516.98;106002;1254;72700;-63
2024/03/12 21:37:38;;;;;;;57.30;31.80;;;;;;;4.91;97.09;99513.88;106055;1254;68615;-66
2024/03/12 21:40:10;;;;;;;53.20;31.50;;;;;;;5.15;95.66;99512.04;105923;1254;72698;-68
2024/03/12 21:42:38;;;;;;;44.10;25.80;;;;;;;4.90;97.32;99509.77;105774;1257;60985;-65
2024/03/12 21:45:06;;;;;;;50.40;31.40;;;;;;;5.22;95.44;99512.09;106057;1250;60458;-67
2024/03/12 21:47:36;;;;;;;49.80;25.70;;;;;;;6.25;89.20;99510.52;105500;1260;73752;-67
2024/03/12 21:50:08;;;;;;;43.70;23.90;;;;;;;5.30;93.84;99510.86;105963;1251;68702;-66
2024/03/12 21:52:35;;;;;;;42.30;24.60;;;;;;;4.68;97.86;99503.21;105751;1251;72699;-67
2024/03/12 21:55:05;;;;;;;57.80;29.20;;;;;;;4.98;97.18;99505.40;106065;1250;61855;-66
2024/03/12 21:57:37;;;;;;;53.20;31.30;;;;;;;5.07;96.37;99506.01;106064;1251;60606;-67
2024/03/12 22:00:11;;;;;;;44.40;24.80;;;;;;;4.80;97.65;99502.27;106089;1251;73799;-66
2024/03/12 22:02:39;;;;;;;46.80;23.90;;;;;;;5.00;97.00;99499.61;106043;1251;67889;-66
2024/03/12 22:05:06;;;;;;;54.50;31.00;;;;;;;5.06;96.61;99499.92;105866;1257;72843;-64
2024/03/12 22:07:36;;;;;;;51.30;27.20;;;;;;;5.53;94.18;99504.36;105821;1251;61036;-67
2024/03/12 22:10:05;;;;;;;55.40;35.10;;;;;;;5.32;94.61;99500.20;106033;1251;60474;-69
2024/03/12 22:12:32;;;;;;;60.40;35.00;;;;;;;5.57;93.50;99502.97;105530;1257;72869;-67
2024/03/12 22:14:59;;;;;;;61.90;35.40;;;;;;;5.58;92.91;99501.52;105720;1251;68914;-67
2024/03/12 22:17:26;;;;;;;56.10;31.80;;;;;;;5.50;93.09;99499.48;106006;1253;72534;-67
2024/03/12 22:19:54;;;;;;;62.50;34.80;;;;;;;5.30;93.70;99492.70;106076;1251;61177;-67
2024/03/12 22:22:22;;;;;;;60.90;34.50;;;;;;;5.80;90.97;99491.42;105772;1251;60647;-69
2024/03/12 22:24:49;;;;;;;57.70;30.30;;;;;;;5.38;93.50;99491.34;106038;1254;74540;-68
2024/03/12 22:27:16;;;;;;;47.50;26.60;;;;;;;5.46;92.34;99488.73;105798;1252;68962;-67
2024/03/12 22:29:43;;;;;;;60.10;32.70;;;;;;;5.50;92.81;99485.67;105654;1254;72744;-66
2024/03/12 22:32:14;;;;;;;56.20;31.80;;;;;;;5.26;93.18;99488.34;105942;1250;60997;-67
2024/03/12 22:34:41;;;;;;;48.40;25.80;;;;;;;5.28;93.41;99487.85;105857;1251;60904;-68
2024/03/12 22:37:08;;;;;;;64.90;35.00;;;;;;;5.24;93.09;99481.49;106045;1253;74507;-66
2024/03/12 22:39:36;;;;;;;50.40;28.40;;;;;;;5.35;92.33;99481.21;106023;1251;68880;-65
2024/03/12 22:42:04;;;;;;;66.80;37.80;;;;;;;5.56;91.46;99484.50;105945;1253;72816;-70
2024/03/12 22:44:32;;;;;;;73.70;38.60;;;;;;;5.52;91.29;99479.84;106171;1253;60477;-71
2024/03/12 22:47:00;;;;;;;70.30;35.90;;;;;;;5.63;90.07;99486.42;105777;1250;60546;-68
2024/03/12 22:49:28;;;;;;;58.40;27.80;;;;;;;5.50;90.94;99481.14;106153;1250;73666;-67
2024/03/12 22:51:55;;;;;;;76.60;42.30;;;;;;;5.55;90.27;99477.30;106209;1251;69073;-64
2024/03/12 22:54:23;;;;;;;71.70;36.90;;;;;;;5.55;90.50;99483.11;106107;1250;72479;-68
2024/03/12 22:56:50;;;;;;;59.80;33.80;;;;;;;5.69;89.80;99483.13;105904;1251;61264;-70
2024/03/12 22:59:18;;;;;;;70.00;39.30;;;;;;;5.68;89.34;99483.09;106004;1253;60419;-68
2024/03/12 23:01:47;;;;;;;80.60;44.20;;;;;;;5.81;89.49;99486.16;106079;1253;73651;-70
2024/03/12 23:04:15;;;;;;;66.90;37.30;;;;;;;5.90;88.26;99486.90;105975;1251;68622;-67
2024/03/12 23:06:43;;;;;;;83.50;45.20;;;;;;;5.77;89.25;99486.80;106103;1252;72095;-69
2024/03/12 23:09:13;;;;;;;71.20;38.90;;;;;;;4.98;92.58;99483.02;105841;1251;60936;-63
2024/03/12 23:11:41;;;;;;;75.90;42.20;;;;;;;4.99;94.36;99481.80;105838;1250;60840;-69
2024/03/12 23:14:09;;;;;;;77.10;42.00;;;;;;;5.29;92.40;99482.70;106165;1253;74017;-67
2024/03/12 23:16:36;;;;;;;75.60;43.70;;;;;;;4.88;94.94;99479.17;106032;1257;68849;-67
2024/03/12 23:19:03;;;;;;;77.50;43.20;;;;;;;5.22;93.08;99476.97;106050;1253;72542;-67
2024/03/12 23:21:30;;;;;;;51.90;26.50;;;;;;;5.54;90.95;99477.48;105748;1251;61854;-69
2024/03/12 23:23:57;;;;;;;83.60;44.30;;;;;;;5.59;90.54;99476.92;105672;1253;62076;-66
2024/03/12 23:26:24;;;;;;;65.40;38.00;;;;;;;5.35;91.44;99473.96;106003;1254;75009;-69
2024/03/12 23:28:51;;;;;;;62.50;31.50;;;;;;;5.27;92.38;99476.55;105994;1250;68792;-69
2024/03/12 23:31:18;;;;;;;65.00;35.30;;;;;;;5.47;91.44;99472.48;106024;1253;70719;-68
2024/03/12 23:33:45;;;;;;;63.60;37.40;;;;;;;5.48;91.20;99474.17;105896;1253;60574;-67
2024/03/12 23:36:16;;;;;;;71.30;40.00;;;;;;;5.51;91.01;99472.96;105957;1251;60515;-68
2024/03/12 23:38:44;;;;;;;61.80;34.60;;;;;;;5.69;89.57;99472.21;106117;1252;73901;-69
2024/03/12 23:41:11;;;;;;;53.50;29.90;;;;;;;5.52;90.82;99469.27;105955;1251;69467;-68
2024/03/12 23:43:41;;;;;;;62.60;34.90;;;;;;;5.40;91.52;99468.67;105680;1252;72825;-68